Time,TemperatureF,DewpointF,PressureIn,WindDirection,WindDirectionDegrees,WindSpeedMPH,WindSpeedGustMPH,Humidity,HourlyPrecipIn,Conditions,Clouds,dailyrainin,SolarRadiationWatts/m^2,SoftwareType,DateUTC
2013-06-26 00:00:00,77.3,74.1,30.05,SSW,202,1.9,4.6,90,0.00,CLR,OVC,0.02,0.0,WeatherDisplay:10.37,2013-06-26 04:00:00,
2013-06-26 00:01:00,77.3,74.1,30.05,SSW,203,1.5,4.6,90,0.00,CLR,OVC,0.02,0.0,WeatherDisplay:10.37,2013-06-26 04:01:00,
2013-06-26 00:06:00,77.3,74.1,30.05,SW,234,3.9,5.8,90,0.00,RA,OVC,0.00,0.0,WeatherDisplay:10.37,2013-06-26 04:06:00,
2013-06-26 00:11:00,77.3,74.1,30.05,SSW,207,1.8,7.0,90,0.00,CLR,OVC,0.00,0.0,WeatherDisplay:10.37,2013-06-26 04:11:00,
2013-06-26 00:16:00,77.3,74.1,30.05,SSE,163,2.0,3.5,90,0.00,CLR,OVC,0.00,0.0,WeatherDisplay:10.37,2013-06-26 04:16:00,
2013-06-26 00:21:00,77.4,74.6,30.04,South,174,2.1,6.9,91,0.00,CLR,OVC,0.00,0.0,WeatherDisplay:10.37,2013-06-26 04:21:00,
2013-06-26 00:26:00,77.4,74.2,30.04,SW,215,1.8,4.0,90,0.00,CLR,OVC,0.00,0.0,WeatherDisplay:10.37,2013-06-26 04:26:00,
2013-06-26 00:31:00,77.4,74.6,30.04,SSW,200,2.4,4.6,91,0.00,CLR,OVC,0.00,0.0,WeatherDisplay:10.37,2013-06-26 04:31:00,
2013-06-26 00:36:00,77.5,74.7,30.04,SSW,206,2.1,3.5,91,0.00,CLR,OVC,0.00,0.0,WeatherDisplay:10.37,2013-06-26 04:36:00,
2013-06-26 00:41:00,77.5,74.7,30.04,West,265,3.8,6.9,91,0.00,CLR,OVC,0.00,0.0,WeatherDisplay:10.37,2013-06-26 04:41:00,
2013-06-26 00:46:00,77.5,74.7,30.04,SSW,196,1.6,3.5,91,0.00,CLR,OVC,0.00,0.0,WeatherDisplay:10.37,2013-06-26 04:46:00,
2013-06-26 00:51:00,77.4,74.6,30.05,SSW,205,2.5,5.0,91,0.00,CLR,OVC,0.00,0.0,WeatherDisplay:10.37,2013-06-26 04:51:00,
2013-06-26 00:56:00,77.4,74.6,30.05,SSW,210,1.2,3.0,91,0.00,CLR,OVC,0.00,0.0,WeatherDisplay:10.37,2013-06-26 04:56:00,
2013-06-26 01:01:00,77.4,74.6,30.04,WSW,244,1.4,3.5,91,0.00,CLR,OVC,0.00,0.0,WeatherDisplay:10.37,2013-06-26 05:01:00,
2013-06-26 01:06:00,77.4,74.6,30.04,South,185,3.3,5.8,91,0.00,CLR,OVC,0.00,0.0,WeatherDisplay:10.37,2013-06-26 05:06:00,
2013-06-26 01:11:00,77.4,74.6,30.04,South,188,3.2,5.0,91,0.00,CLR,OVC,0.00,0.0,WeatherDisplay:10.37,2013-06-26 05:11:00,
2013-06-26 01:16:00,77.4,74.6,30.04,SW,223,2.2,3.5,91,0.00,CLR,OVC,0.00,0.0,WeatherDisplay:10.37,2013-06-26 05:16:00,
2013-06-26 01:21:00,77.3,74.5,30.04,South,171,1.0,3.5,91,0.00,CLR,OVC,0.00,0.0,WeatherDisplay:10.37,2013-06-26 05:21:00,
2013-06-26 01:26:00,77.3,74.5,30.04,SW,223,1.8,4.6,91,0.00,CLR,OVC,0.00,0.0,WeatherDisplay:10.37,2013-06-26 05:26:00,
2013-06-26 01:31:00,77.2,74.4,30.04,SW,214,2.5,4.6,91,0.00,CLR,OVC,0.00,0.0,WeatherDisplay:10.37,2013-06-26 05:31:00,
2013-06-26 01:36:00,77.2,74.4,30.04,SW,221,1.8,3.5,91,0.00,CLR,OVC,0.00,0.0,WeatherDisplay:10.37,2013-06-26 05:36:00,
2013-06-26 01:41:00,77.1,74.3,30.04,SW,219,1.3,4.6,91,0.00,CLR,OVC,0.00,0.0,WeatherDisplay:10.37,2013-06-26 05:41:00,
2013-06-26 01:46:00,77.1,74.3,30.04,SW,225,3.6,6.9,91,0.00,CLR,OVC,0.00,0.0,WeatherDisplay:10.37,2013-06-26 05:46:00,
2013-06-26 01:51:00,77.1,74.3,30.04,SSW,206,3.7,3.7,91,0.00,CLR,OVC,0.00,0.0,WeatherDisplay:10.37,2013-06-26 05:51:00,
2013-06-26 01:56:00,77.1,74.3,30.04,WSW,244,2.0,3.5,91,0.00,CLR,OVC,0.00,0.0,WeatherDisplay:10.37,2013-06-26 05:56:00,
2013-06-26 02:01:00,77.1,74.3,30.04,WSW,238,0.1,1.0,91,0.00,CLR,OVC,0.00,0.0,WeatherDisplay:10.37,2013-06-26 06:01:00,
2013-06-26 02:06:00,77.0,74.2,30.04,WSW,246,0.8,3.5,91,0.00,CLR,OVC,0.00,0.0,WeatherDisplay:10.37,2013-06-26 06:06:00,
2013-06-26 02:11:00,76.9,74.1,30.04,SSW,204,1.9,4.0,91,0.00,CLR,OVC,0.00,0.0,WeatherDisplay:10.37,2013-06-26 06:11:00,
2013-06-26 02:16:00,76.9,74.1,30.04,SSW,205,0.3,2.3,91,0.00,CLR,OVC,0.00,0.0,WeatherDisplay:10.37,2013-06-26 06:16:00,
2013-06-26 02:21:00,76.8,74.0,30.04,SSW,196,0.9,2.0,91,0.00,CLR,OVC,0.00,0.0,WeatherDisplay:10.37,2013-06-26 06:21:00,
2013-06-26 02:26:00,76.7,73.9,30.04,WSW,246,0.2,2.3,91,0.00,CLR,OVC,0.00,0.0,WeatherDisplay:10.37,2013-06-26 06:26:00,
2013-06-26 02:31:00,76.6,73.8,30.04,WSW,238,1.1,3.5,91,0.00,CLR,OVC,0.00,0.0,WeatherDisplay:10.37,2013-06-26 06:31:00,
2013-06-26 02:36:00,76.6,74.1,30.04,SW,217,1.5,3.0,92,0.00,CLR,OVC,0.00,0.0,WeatherDisplay:10.37,2013-06-26 06:36:00,
2013-06-26 02:41:00,76.5,74.0,30.04,SSW,204,0.1,2.3,92,0.00,CLR,OVC,0.00,0.0,WeatherDisplay:10.37,2013-06-26 06:41:00,
2013-06-26 02:47:00,76.4,73.9,30.04,West,262,0.2,0.0,92,0.00,CLR,OVC,0.00,0.0,WeatherDisplay:10.37,2013-06-26 06:47:00,
2013-06-26 02:52:00,76.2,73.7,30.04,SSW,208,1.1,3.5,92,0.00,CLR,OVC,0.00,0.0,WeatherDisplay:10.37,2013-06-26 06:52:00,
2013-06-26 02:57:00,76.2,73.7,30.04,SSW,208,0.0,1.1,92,0.00,CLR,OVC,0.00,0.0,WeatherDisplay:10.37,2013-06-26 06:57:00,
2013-06-26 03:02:00,76.1,73.6,30.04,SSW,208,0.1,0.0,92,0.00,CLR,OVC,0.00,0.0,WeatherDisplay:10.37,2013-06-26 07:02:00,
2013-06-26 03:07:00,76.0,73.5,30.03,SSW,208,0.0,0.0,92,0.00,CLR,OVC,0.00,0.0,WeatherDisplay:10.37,2013-06-26 07:07:00,
2013-06-26 03:12:00,75.8,73.6,30.03,SSW,208,0.1,0.0,93,0.00,CLR,OVC,0.00,0.0,WeatherDisplay:10.37,2013-06-26 07:12:00,
2013-06-26 03:17:00,75.8,73.6,30.04,SSW,207,0.4,2.3,93,0.00,CLR,OVC,0.00,0.0,WeatherDisplay:10.37,2013-06-26 07:17:00,
2013-06-26 03:22:00,75.7,73.8,30.04,SSW,204,0.1,0.0,94,0.00,CLR,OVC,0.00,0.0,WeatherDisplay:10.37,2013-06-26 07:22:00,
2013-06-26 03:27:00,75.7,73.8,30.04,SSW,205,0.0,1.1,94,0.00,CLR,OVC,0.00,0.0,WeatherDisplay:10.37,2013-06-26 07:27:00,
2013-06-26 03:32:00,75.6,73.8,30.03,SSW,206,0.0,1.1,94,0.00,CLR,OVC,0.00,0.0,WeatherDisplay:10.37,2013-06-26 07:32:00,
2013-06-26 03:37:00,75.5,73.7,30.04,SSW,206,0.0,0.0,94,0.00,CLR,OVC,0.00,0.0,WeatherDisplay:10.37,2013-06-26 07:37:00,
2013-06-26 03:42:00,75.5,73.7,30.04,SSW,202,0.0,0.0,94,0.00,CLR,OVC,0.00,0.0,WeatherDisplay:10.37,2013-06-26 07:42:00,
2013-06-26 03:47:00,75.4,73.6,30.03,SSW,202,0.3,1.1,94,0.00,CLR,OVC,0.00,0.0,WeatherDisplay:10.37,2013-06-26 07:47:00,
2013-06-26 03:52:00,75.4,73.6,30.03,SSW,202,0.7,1.1,94,0.00,CLR,OVC,0.00,0.0,WeatherDisplay:10.37,2013-06-26 07:52:00,
2013-06-26 03:57:00,75.4,73.6,30.03,SSE,167,0.3,3.5,94,0.00,CLR,OVC,0.00,0.0,WeatherDisplay:10.37,2013-06-26 07:57:00,
2013-06-26 04:02:00,75.5,73.7,30.03,South,171,0.4,2.3,94,0.00,CLR,OVC,0.00,0.0,WeatherDisplay:10.37,2013-06-26 08:02:00,
2013-06-26 04:07:00,75.5,73.7,30.03,SW,236,1.0,2.3,94,0.00,CLR,OVC,0.00,0.0,WeatherDisplay:10.37,2013-06-26 08:07:00,
2013-06-26 04:12:00,75.6,73.8,30.03,South,184,0.4,2.3,94,0.00,CLR,OVC,0.00,0.0,WeatherDisplay:10.37,2013-06-26 08:12:00,
2013-06-26 04:17:00,75.7,74.2,30.03,SSW,197,1.1,3.5,95,0.00,CLR,OVC,0.00,0.0,WeatherDisplay:10.37,2013-06-26 08:17:00,
2013-06-26 04:22:00,75.7,73.8,30.03,SSW,208,0.1,1.1,94,0.00,CLR,OVC,0.00,0.0,WeatherDisplay:10.37,2013-06-26 08:22:00,
2013-06-26 04:27:00,75.7,73.8,30.04,SSW,196,1.5,3.5,94,0.00,CLR,OVC,0.00,0.0,WeatherDisplay:10.37,2013-06-26 08:27:00,
2013-06-26 04:32:00,75.7,73.8,30.04,SSW,210,0.4,1.1,94,0.00,CLR,OVC,0.00,0.0,WeatherDisplay:10.37,2013-06-26 08:32:00,
2013-06-26 04:37:00,75.7,73.8,30.04,South,179,1.9,3.5,94,0.00,CLR,OVC,0.00,0.0,WeatherDisplay:10.37,2013-06-26 08:37:00,
2013-06-26 04:42:00,75.7,73.8,30.04,South,184,0.5,2.3,94,0.00,CLR,OVC,0.00,0.0,WeatherDisplay:10.37,2013-06-26 08:42:00,
2013-06-26 04:47:00,75.7,73.8,30.04,SSW,196,1.8,3.5,94,0.00,CLR,OVC,0.00,0.0,WeatherDisplay:10.37,2013-06-26 08:47:00,
2013-06-26 04:52:00,75.6,73.8,30.04,South,191,2.7,5.8,94,0.00,CLR,OVC,0.00,0.0,WeatherDisplay:10.37,2013-06-26 08:52:00,
2013-06-26 04:57:00,75.6,73.8,30.04,SSW,200,1.3,3.5,94,0.00,CLR,OVC,0.00,0.0,WeatherDisplay:10.37,2013-06-26 08:57:00,
2013-06-26 05:02:00,75.6,73.8,30.04,SSW,202,0.6,3.5,94,0.00,CLR,OVC,0.00,0.0,WeatherDisplay:10.37,2013-06-26 09:02:00,
2013-06-26 05:07:00,75.5,73.7,30.04,SW,219,1.2,3.5,94,0.00,CLR,OVC,0.00,0.0,WeatherDisplay:10.37,2013-06-26 09:07:00,
2013-06-26 05:12:00,75.5,73.7,30.04,South,171,0.9,3.5,94,0.00,CLR,OVC,0.00,0.0,WeatherDisplay:10.37,2013-06-26 09:12:00,
2013-06-26 05:17:00,75.4,73.6,30.04,SSW,198,1.7,3.5,94,0.00,CLR,OVC,0.00,0.0,WeatherDisplay:10.37,2013-06-26 09:17:00,
2013-06-26 05:22:00,75.3,73.5,30.04,SSW,194,0.5,2.3,94,0.00,CLR,OVC,0.00,0.0,WeatherDisplay:10.37,2013-06-26 09:22:00,
2013-06-26 05:27:00,75.3,73.5,30.04,South,185,1.4,3.5,94,0.00,CLR,OVC,0.00,0.0,WeatherDisplay:10.37,2013-06-26 09:27:00,
2013-06-26 05:32:00,75.3,73.5,30.04,South,185,0.0,0.0,94,0.00,CLR,OVC,0.00,0.0,WeatherDisplay:10.37,2013-06-26 09:32:00,
2013-06-26 05:37:00,75.1,73.3,30.04,South,179,1.1,5.0,94,0.00,CLR,OVC,0.00,0.0,WeatherDisplay:10.37,2013-06-26 09:37:00,
2013-06-26 05:42:00,75.1,73.3,30.04,SSW,199,1.2,3.5,94,0.00,CLR,OVC,0.00,0.0,WeatherDisplay:10.37,2013-06-26 09:42:00,
2013-06-26 05:47:00,75.0,73.2,30.04,SSW,198,0.0,0.0,94,0.00,CLR,OVC,0.00,0.0,WeatherDisplay:10.37,2013-06-26 09:47:00,
2013-06-26 05:52:00,75.0,73.2,30.04,SSW,198,0.0,0.0,94,0.00,CLR,OVC,0.00,0.0,WeatherDisplay:10.37,2013-06-26 09:52:00,
2013-06-26 05:57:00,74.9,73.1,30.04,ESE,122,0.2,1.1,94,0.00,CLR,OVC,0.00,0.0,WeatherDisplay:10.37,2013-06-26 09:57:00,
2013-06-26 06:02:00,74.8,73.0,30.04,ESE,122,0.0,0.0,94,0.00,OVC,,0.00,0.0,WeatherDisplay:10.37,2013-06-26 10:02:00,
2013-06-26 06:07:00,74.7,72.9,30.04,ESE,122,0.0,0.0,94,0.00,OVC,,0.00,0.0,WeatherDisplay:10.37,2013-06-26 10:07:00,
2013-06-26 06:12:00,74.6,72.8,30.04,ESE,122,0.0,0.0,94,0.00,OVC,,0.00,0.0,WeatherDisplay:10.37,2013-06-26 10:12:00,
2013-06-26 06:17:00,74.5,72.7,30.04,ESE,122,0.0,1.1,94,0.00,OVC,,0.00,0.0,WeatherDisplay:10.37,2013-06-26 10:17:00,
2013-06-26 06:22:00,74.4,72.9,30.04,ESE,122,0.0,0.0,95,0.00,OVC,,0.00,0.0,WeatherDisplay:10.37,2013-06-26 10:22:00,
2013-06-26 06:27:00,74.3,72.8,30.04,ESE,122,0.0,0.0,95,0.00,OVC,,0.00,0.0,WeatherDisplay:10.37,2013-06-26 10:27:00,
2013-06-26 06:32:00,74.4,72.9,30.04,South,184,0.0,0.0,95,0.00,OVC,,0.00,0.0,WeatherDisplay:10.37,2013-06-26 10:32:00,
2013-06-26 06:37:00,74.4,72.9,30.05,South,185,0.1,1.0,95,0.00,OVC,,0.00,0.0,WeatherDisplay:10.37,2013-06-26 10:37:00,
2013-06-26 06:42:00,74.7,73.2,30.05,SSW,198,1.1,3.5,95,0.00,OVC,,0.00,0.0,WeatherDisplay:10.37,2013-06-26 10:42:00,
2013-06-26 06:47:00,74.9,73.4,30.05,WSW,243,4.4,8.1,95,0.00,OVC,,0.00,0.0,WeatherDisplay:10.37,2013-06-26 10:47:00,
2013-06-26 06:52:00,75.3,73.5,30.05,SSW,204,4.4,5.0,94,0.00,OVC,,0.00,0.0,WeatherDisplay:10.37,2013-06-26 10:52:00,
2013-06-26 06:57:00,75.6,73.4,30.05,SW,218,2.5,5.8,93,0.00,OVC,,0.00,0.0,WeatherDisplay:10.37,2013-06-26 10:57:00,
2013-06-26 07:02:00,76.1,73.6,30.05,SSW,211,4.4,9.2,92,0.00,OVC,,0.00,0.0,WeatherDisplay:10.37,2013-06-26 11:02:00,
2013-06-26 07:07:00,76.5,73.3,30.05,SSW,200,3.9,8.1,90,0.00,OVC,,0.00,0.0,WeatherDisplay:10.37,2013-06-26 11:07:00,
2013-06-26 07:12:00,76.9,73.4,30.05,WSW,246,4.7,7.0,89,0.00,OVC,,0.00,0.0,WeatherDisplay:10.37,2013-06-26 11:12:00,
2013-06-26 07:17:00,77.3,73.8,30.05,SW,225,2.3,6.9,89,0.00,OVC,,0.00,0.0,WeatherDisplay:10.37,2013-06-26 11:17:00,
2013-06-26 07:22:00,77.6,73.4,30.05,SW,219,4.9,6.9,87,0.00,OVC,,0.00,0.0,WeatherDisplay:10.37,2013-06-26 11:22:00,
2013-06-26 07:27:00,77.8,73.6,30.05,SW,232,6.4,11.5,87,0.00,OVC,,0.00,0.0,WeatherDisplay:10.37,2013-06-26 11:27:00,
2013-06-26 07:32:00,78.0,73.8,30.05,SW,231,3.2,6.9,87,0.00,OVC,,0.00,0.0,WeatherDisplay:10.37,2013-06-26 11:32:00,
2013-06-26 07:37:00,78.3,73.8,30.05,WNW,289,4.7,9.2,86,0.00,OVC,,0.00,0.0,WeatherDisplay:10.37,2013-06-26 11:37:00,
2013-06-26 07:42:00,78.5,74.0,30.05,WSW,255,3.4,4.6,86,0.00,OVC,,0.00,0.0,WeatherDisplay:10.37,2013-06-26 11:42:00,
2013-06-26 07:47:00,78.9,74.4,30.05,SW,236,6.7,7.0,86,0.00,OVC,,0.00,0.0,WeatherDisplay:10.37,2013-06-26 11:47:00,
2013-06-26 07:52:00,79.1,74.2,30.05,SSW,195,4.0,10.4,85,0.00,OVC,,0.00,0.0,WeatherDisplay:10.37,2013-06-26 11:52:00,
2013-06-26 07:57:00,79.3,74.0,30.05,SW,236,4.2,10.4,84,0.00,OVC,,0.00,0.0,WeatherDisplay:10.37,2013-06-26 11:57:00,
2013-06-26 08:02:00,79.5,74.2,30.05,WSW,254,4.1,6.9,84,0.00,OVC,,0.00,0.0,WeatherDisplay:10.37,2013-06-26 12:02:00,
2013-06-26 08:07:00,79.7,74.4,30.05,SW,219,3.7,7.0,84,0.00,OVC,,0.00,0.0,WeatherDisplay:10.37,2013-06-26 12:07:00,
2013-06-26 08:12:00,80.1,74.8,30.05,SW,219,2.0,10.4,84,0.00,OVC,,0.00,0.0,WeatherDisplay:10.37,2013-06-26 12:12:00,
2013-06-26 08:17:00,80.2,74.6,30.05,SSW,198,2.8,5.8,83,0.00,OVC,,0.00,0.0,WeatherDisplay:10.37,2013-06-26 12:17:00,
2013-06-26 08:22:00,79.9,74.3,30.05,South,189,4.1,12.7,83,0.00,OVC,,0.00,0.0,WeatherDisplay:10.37,2013-06-26 12:22:00,
2013-06-26 08:27:00,79.5,73.9,30.05,SW,220,1.0,3.5,83,0.00,OVC,,0.00,0.0,WeatherDisplay:10.37,2013-06-26 12:27:00,
2013-06-26 08:32:00,79.3,74.0,30.05,SW,228,1.0,5.8,84,0.00,OVC,,0.00,0.0,WeatherDisplay:10.37,2013-06-26 12:32:00,
2013-06-26 08:37:00,79.1,73.8,30.05,SW,228,2.4,8.1,84,0.00,OVC,,0.00,0.0,WeatherDisplay:10.37,2013-06-26 12:37:00,
2013-06-26 08:42:00,79.1,74.2,30.05,SW,221,2.9,8.1,85,0.00,OVC,,0.00,0.0,WeatherDisplay:10.37,2013-06-26 12:42:00,
2013-06-26 08:47:00,79.5,74.2,30.05,SW,229,2.9,4.6,84,0.00,OVC,,0.00,0.0,WeatherDisplay:10.37,2013-06-26 12:47:00,
2013-06-26 08:52:00,80.2,74.2,30.05,West,275,2.5,9.2,82,0.00,OVC,,0.00,0.0,WeatherDisplay:10.37,2013-06-26 12:52:00,
2013-06-26 08:57:00,80.7,74.7,30.05,SW,223,0.3,3.5,82,0.00,OVC,,0.00,0.0,WeatherDisplay:10.37,2013-06-26 12:57:00,
2013-06-26 09:03:00,81.2,74.1,30.05,SSW,203,3.9,6.9,79,0.00,OVC,,0.00,0.0,WeatherDisplay:10.37,2013-06-26 13:03:00,
2013-06-26 09:08:00,81.4,74.3,30.05,SSW,200,2.6,8.1,79,0.00,OVC,,0.00,0.0,WeatherDisplay:10.37,2013-06-26 13:08:00,
2013-06-26 09:13:00,81.5,74.0,30.05,WSW,238,5.5,8.1,78,0.00,OVC,,0.00,0.0,WeatherDisplay:10.37,2013-06-26 13:13:00,
2013-06-26 09:18:00,81.5,74.4,30.05,SW,235,2.9,5.0,79,0.00,OVC,,0.00,0.0,WeatherDisplay:10.37,2013-06-26 13:18:00,
2013-06-26 09:23:00,81.6,74.8,30.06,WSW,249,3.8,4.0,80,0.00,OVC,,0.00,0.0,WeatherDisplay:10.37,2013-06-26 13:23:00,
2013-06-26 09:28:00,81.7,74.2,30.06,West,267,4.6,8.1,78,0.00,OVC,,0.00,0.0,WeatherDisplay:10.37,2013-06-26 13:28:00,
2013-06-26 09:33:00,81.4,73.9,30.05,SW,227,2.8,5.8,78,0.00,OVC,,0.00,0.0,WeatherDisplay:10.37,2013-06-26 13:33:00,
2013-06-26 09:38:00,81.1,74.0,30.05,WNW,302,3.6,4.6,79,0.00,OVC,,0.00,0.0,WeatherDisplay:10.37,2013-06-26 13:38:00,
2013-06-26 09:43:00,80.9,74.1,30.05,WSW,237,1.2,3.5,80,0.00,OVC,,0.00,0.0,WeatherDisplay:10.37,2013-06-26 13:43:00,
2013-06-26 09:48:00,81.2,74.8,30.04,South,190,1.0,3.0,81,0.00,OVC,,0.00,0.0,WeatherDisplay:10.37,2013-06-26 13:48:00,
2013-06-26 09:53:00,82.0,74.8,30.04,SW,229,3.9,7.0,79,0.00,OVC,,0.00,0.0,WeatherDisplay:10.37,2013-06-26 13:53:00,
2013-06-26 09:58:00,82.4,74.5,30.04,West,276,7.8,7.8,77,0.00,OVC,,0.00,0.0,WeatherDisplay:10.37,2013-06-26 13:58:00,
2013-06-26 10:03:00,82.7,74.8,30.04,West,273,4.4,5.8,77,0.00,OVC,,0.00,0.0,WeatherDisplay:10.37,2013-06-26 14:03:00,
2013-06-26 10:08:00,82.9,74.2,30.04,SW,231,6.2,10.4,75,0.00,OVC,,0.00,0.0,WeatherDisplay:10.37,2013-06-26 14:08:00,
2013-06-26 10:13:00,83.2,74.4,30.04,SW,221,3.7,8.1,75,0.00,OVC,,0.00,0.0,WeatherDisplay:10.37,2013-06-26 14:13:00,
2013-06-26 10:18:00,83.4,74.6,30.03,WSW,244,3.0,4.6,75,0.00,OVC,,0.00,0.0,WeatherDisplay:10.37,2013-06-26 14:18:00,
2013-06-26 10:23:00,83.2,74.0,30.03,WNW,284,5.5,9.2,74,0.00,OVC,,0.00,0.0,WeatherDisplay:10.37,2013-06-26 14:23:00,
2013-06-26 10:28:00,83.3,74.9,30.03,WSW,238,3.9,8.1,76,0.00,OVC,,0.00,0.0,WeatherDisplay:10.37,2013-06-26 14:28:00,
2013-06-26 10:33:00,83.6,74.4,30.03,SW,220,4.0,8.1,74,0.00,OVC,,0.00,0.0,WeatherDisplay:10.37,2013-06-26 14:33:00,
2013-06-26 10:38:00,83.9,75.1,30.03,SW,227,4.1,8.1,75,0.00,OVC,,0.00,0.0,WeatherDisplay:10.37,2013-06-26 14:38:00,
2013-06-26 10:43:00,84.4,75.2,30.03,NW,322,2.5,5.8,74,0.00,OVC,,0.00,0.0,WeatherDisplay:10.37,2013-06-26 14:43:00,
2013-06-26 10:48:00,85.2,75.6,30.03,SW,232,3.3,4.6,73,0.00,OVC,,0.00,0.0,WeatherDisplay:10.37,2013-06-26 14:48:00,
2013-06-26 10:53:00,85.5,74.6,30.03,WSW,246,4.2,8.1,70,0.00,OVC,,0.00,0.0,WeatherDisplay:10.37,2013-06-26 14:53:00,
2013-06-26 10:58:00,85.7,75.2,30.03,SW,234,3.4,4.6,71,0.00,OVC,,0.00,0.0,WeatherDisplay:10.37,2013-06-26 14:58:00,
2013-06-26 11:03:00,85.9,74.5,30.03,SW,218,5.3,9.2,69,0.00,OVC,,0.00,0.0,WeatherDisplay:10.37,2013-06-26 15:03:00,
2013-06-26 11:08:00,86.1,75.2,30.03,WSW,254,4.4,8.1,70,0.00,OVC,,0.00,0.0,WeatherDisplay:10.37,2013-06-26 15:08:00,
2013-06-26 11:13:00,86.2,74.0,30.03,SW,220,7.2,11.5,67,0.00,OVC,,0.00,0.0,WeatherDisplay:10.37,2013-06-26 15:13:00,
2013-06-26 11:18:00,85.8,74.9,30.03,SSW,210,3.5,5.8,70,0.00,OVC,,0.00,0.0,WeatherDisplay:10.37,2013-06-26 15:18:00,
2013-06-26 11:23:00,85.5,74.2,30.03,SW,221,5.4,9.2,69,0.00,OVC,,0.00,0.0,WeatherDisplay:10.37,2013-06-26 15:23:00,
2013-06-26 11:28:00,85.1,74.2,30.03,WSW,238,8.1,13.8,70,0.00,OVC,,0.00,0.0,WeatherDisplay:10.37,2013-06-26 15:28:00,
2013-06-26 11:33:00,85.1,74.6,30.03,WSW,238,3.5,6.9,71,0.00,OVC,,0.00,0.0,WeatherDisplay:10.37,2013-06-26 15:33:00,
2013-06-26 11:38:00,85.5,74.6,30.03,South,183,5.4,11.0,70,0.00,OVC,,0.00,0.0,WeatherDisplay:10.37,2013-06-26 15:38:00,
2013-06-26 11:43:00,85.8,74.4,30.03,South,178,5.2,8.1,69,0.00,OVC,,0.00,0.0,WeatherDisplay:10.37,2013-06-26 15:43:00,
2013-06-26 11:48:00,86.4,74.6,30.03,SSW,207,6.3,9.2,68,0.00,OVC,,0.00,0.0,WeatherDisplay:10.37,2013-06-26 15:48:00,
2013-06-26 11:53:00,86.4,74.1,30.03,SSW,199,3.7,9.2,67,0.00,OVC,,0.00,0.0,WeatherDisplay:10.37,2013-06-26 15:53:00,
2013-06-26 11:58:00,86.6,74.3,30.03,WSW,244,4.6,6.9,67,0.00,OVC,,0.00,0.0,WeatherDisplay:10.37,2013-06-26 15:58:00,
2013-06-26 12:03:00,86.6,73.9,30.03,WSW,255,6.5,10.4,66,0.00,OVC,,0.00,0.0,WeatherDisplay:10.37,2013-06-26 16:03:00,
2013-06-26 12:08:00,86.8,75.4,30.02,ESE,123,3.0,4.0,69,0.00,OVC,,0.00,0.0,WeatherDisplay:10.37,2013-06-26 16:08:00,
2013-06-26 12:13:00,87.0,74.3,30.02,SSE,159,3.6,10.4,66,0.00,OVC,,0.00,0.0,WeatherDisplay:10.37,2013-06-26 16:13:00,
2013-06-26 12:18:00,87.2,73.5,30.02,SSW,212,4.9,11.5,64,0.00,OVC,,0.00,0.0,WeatherDisplay:10.37,2013-06-26 16:18:00,
2013-06-26 12:23:00,87.6,74.4,30.02,SW,218,3.2,4.6,65,0.00,OVC,,0.00,0.0,WeatherDisplay:10.37,2013-06-26 16:23:00,
2013-06-26 12:28:00,88.0,74.3,30.02,WNW,288,3.2,5.8,64,0.00,OVC,,0.00,0.0,WeatherDisplay:10.37,2013-06-26 16:28:00,
2013-06-26 12:33:00,88.2,73.0,30.02,SSW,208,5.9,9.2,61,0.00,OVC,,0.00,0.0,WeatherDisplay:10.37,2013-06-26 16:33:00,
2013-06-26 12:38:00,88.3,73.1,30.02,SW,221,5.7,10.4,61,0.00,OVC,,0.00,0.0,WeatherDisplay:10.37,2013-06-26 16:38:00,
2013-06-26 12:43:00,88.5,73.3,30.02,SW,232,2.2,4.6,61,0.00,OVC,,0.00,0.0,WeatherDisplay:10.37,2013-06-26 16:43:00,
2013-06-26 12:48:00,88.7,72.5,30.02,SW,231,7.0,13.0,59,0.00,OVC,,0.00,0.0,WeatherDisplay:10.37,2013-06-26 16:48:00,
2013-06-26 12:53:00,88.4,71.7,30.02,SSW,209,5.0,10.4,58,0.00,OVC,,0.00,0.0,WeatherDisplay:10.37,2013-06-26 16:53:00,
2013-06-26 12:58:00,88.2,72.1,30.02,SW,221,4.5,9.2,59,0.00,OVC,,0.00,0.0,WeatherDisplay:10.37,2013-06-26 16:58:00,
2013-06-26 13:03:00,88.3,73.6,30.01,SW,225,3.8,4.6,62,0.00,OVC,,0.00,0.0,WeatherDisplay:10.37,2013-06-26 17:03:00,
2013-06-26 13:08:00,88.8,73.6,30.01,SSW,205,3.5,5.8,61,0.00,OVC,,0.00,0.0,WeatherDisplay:10.37,2013-06-26 17:08:00,
2013-06-26 13:13:00,89.2,74.0,30.01,SSW,200,2.1,6.9,61,0.00,OVC,,0.00,0.0,WeatherDisplay:10.37,2013-06-26 17:13:00,
2013-06-26 13:18:00,89.5,73.3,30.01,SW,220,4.1,6.9,59,0.00,OVC,,0.00,0.0,WeatherDisplay:10.37,2013-06-26 17:18:00,
2013-06-26 13:23:00,89.3,74.1,30.01,SW,229,4.4,6.9,61,0.00,OVC,,0.00,0.0,WeatherDisplay:10.37,2013-06-26 17:23:00,
2013-06-26 13:28:00,89.1,73.9,30.01,South,174,5.7,11.5,61,0.00,OVC,,0.00,0.0,WeatherDisplay:10.37,2013-06-26 17:28:00,
2013-06-26 13:33:00,89.1,74.4,30.01,WSW,241,4.4,6.9,62,0.00,OVC,,0.00,0.0,WeatherDisplay:10.37,2013-06-26 17:33:00,
2013-06-26 13:38:00,89.2,74.5,30.01,SW,225,3.0,6.0,62,0.00,OVC,,0.00,0.0,WeatherDisplay:10.37,2013-06-26 17:38:00,
2013-06-26 13:43:00,89.4,73.7,30.01,South,191,6.1,11.5,60,0.00,OVC,,0.00,0.0,WeatherDisplay:10.37,2013-06-26 17:43:00,
2013-06-26 13:48:00,89.4,74.2,30.01,WNW,289,4.0,6.9,61,0.00,OVC,,0.00,0.0,WeatherDisplay:10.37,2013-06-26 17:48:00,
2013-06-26 13:53:00,89.5,73.3,30.00,WSW,248,6.4,8.1,59,0.00,OVC,,0.00,0.0,WeatherDisplay:10.37,2013-06-26 17:53:00,
2013-06-26 13:58:00,89.4,73.2,30.00,WSW,240,6.6,8.1,59,0.00,OVC,,0.00,0.0,WeatherDisplay:10.37,2013-06-26 17:58:00,
2013-06-26 14:03:00,89.5,75.2,30.00,SW,229,5.1,8.1,63,0.00,OVC,,0.00,0.0,WeatherDisplay:10.37,2013-06-26 18:03:00,
2013-06-26 14:08:00,89.7,74.5,30.00,SSW,207,1.7,5.8,61,0.00,OVC,,0.00,0.0,WeatherDisplay:10.37,2013-06-26 18:08:00,
2013-06-26 14:13:00,90.0,75.7,29.99,SSW,208,3.1,4.6,63,0.00,OVC,,0.00,0.0,WeatherDisplay:10.37,2013-06-26 18:13:00,
2013-06-26 14:18:00,90.4,74.6,29.99,West,273,4.6,7.0,60,0.00,OVC,,0.00,0.0,WeatherDisplay:10.37,2013-06-26 18:18:00,
2013-06-26 14:23:00,90.5,75.2,29.98,SW,221,4.3,8.1,61,0.00,OVC,,0.00,0.0,WeatherDisplay:10.37,2013-06-26 18:23:00,
2013-06-26 14:28:00,90.4,77.0,29.98,South,171,2.8,5.8,65,0.00,OVC,,0.00,0.0,WeatherDisplay:10.37,2013-06-26 18:28:00,
2013-06-26 14:33:00,90.2,76.8,29.98,WSW,245,4.7,7.0,65,0.00,OVC,,0.00,0.0,WeatherDisplay:10.37,2013-06-26 18:33:00,
2013-06-26 14:38:00,90.2,76.8,29.98,SSE,165,3.6,6.9,65,0.00,OVC,,0.00,0.0,WeatherDisplay:10.37,2013-06-26 18:38:00,
2013-06-26 14:43:00,90.0,76.6,29.97,SSW,201,3.1,13.8,65,0.00,OVC,,0.00,0.0,WeatherDisplay:10.37,2013-06-26 18:43:00,
2013-06-26 14:48:00,89.4,76.5,29.97,East,91,4.4,11.5,66,0.00,OVC,,0.00,0.0,WeatherDisplay:10.37,2013-06-26 18:48:00,
2013-06-26 14:54:00,88.8,76.9,29.97,South,175,3.9,7.0,68,0.00,OVC,,0.00,0.0,WeatherDisplay:10.37,2013-06-26 18:54:00,
2013-06-26 14:59:00,88.7,75.9,29.97,East,84,2.9,5.8,66,0.00,OVC,,0.00,0.0,WeatherDisplay:10.37,2013-06-26 18:59:00,
2013-06-26 15:04:00,88.8,75.0,29.97,SSW,194,6.8,10.4,64,0.00,OVC,,0.00,0.0,WeatherDisplay:10.37,2013-06-26 19:04:00,
2013-06-26 15:09:00,88.6,76.7,29.97,South,169,3.4,9.2,68,0.00,OVC,,0.00,0.0,WeatherDisplay:10.37,2013-06-26 19:09:00,
2013-06-26 15:14:00,88.2,76.3,29.97,South,183,4.6,11.5,68,0.00,OVC,,0.00,0.0,WeatherDisplay:10.37,2013-06-26 19:14:00,
2013-06-26 15:19:00,88.2,76.7,29.97,SSE,148,4.3,10.4,69,0.00,OVC,,0.00,0.0,WeatherDisplay:10.37,2013-06-26 19:19:00,
2013-06-26 15:24:00,88.0,77.0,29.97,ESE,109,4.6,11.5,70,0.00,OVC,,0.00,0.0,WeatherDisplay:10.37,2013-06-26 19:24:00,
2013-06-26 15:29:00,87.7,77.1,29.97,SSW,194,4.9,8.1,71,0.00,OVC,,0.00,0.0,WeatherDisplay:10.37,2013-06-26 19:29:00,
2013-06-26 15:34:00,87.7,77.1,29.97,SE,124,4.7,13.8,71,0.00,OVC,,0.00,0.0,WeatherDisplay:10.37,2013-06-26 19:34:00,
2013-06-26 15:39:00,87.4,76.8,29.97,East,84,6.0,11.5,71,0.00,OVC,,0.00,0.0,WeatherDisplay:10.37,2013-06-26 19:39:00,
2013-06-26 15:44:00,86.6,76.1,29.97,SE,146,4.7,11.5,71,0.00,OVC,,0.00,0.0,WeatherDisplay:10.37,2013-06-26 19:44:00,
2013-06-26 15:49:00,86.2,75.7,29.97,South,178,8.5,17.3,71,0.00,OVC,,0.00,0.0,WeatherDisplay:10.37,2013-06-26 19:49:00,
2013-06-26 15:54:00,86.1,75.2,29.96,SW,223,8.1,13.8,70,0.00,OVC,,0.00,0.0,WeatherDisplay:10.37,2013-06-26 19:54:00,
2013-06-26 15:59:00,86.1,75.2,29.96,SE,142,9.0,15.0,70,0.00,OVC,,0.00,0.0,WeatherDisplay:10.37,2013-06-26 19:59:00,
2013-06-26 16:04:00,86.5,76.0,29.96,SSW,193,7.9,12.7,71,0.00,OVC,,0.00,0.0,WeatherDisplay:10.37,2013-06-26 20:04:00,
2013-06-26 16:09:00,86.9,75.9,29.96,East,90,6.6,11.5,70,0.00,OVC,,0.00,0.0,WeatherDisplay:10.37,2013-06-26 20:09:00,
2013-06-26 16:14:00,86.5,75.1,29.96,SW,217,6.6,15.0,69,0.00,OVC,,0.00,0.0,WeatherDisplay:10.37,2013-06-26 20:14:00,
2013-06-26 16:19:00,85.8,74.9,29.96,WSW,251,6.9,11.5,70,0.00,OVC,,0.00,0.0,WeatherDisplay:10.37,2013-06-26 20:19:00,
2013-06-26 16:24:00,85.3,74.8,29.96,SW,232,4.6,10.4,71,0.00,OVC,,0.00,0.0,WeatherDisplay:10.37,2013-06-26 20:24:00,
2013-06-26 16:29:00,84.9,74.4,29.97,South,181,5.3,11.5,71,0.00,OVC,,0.00,0.0,WeatherDisplay:10.37,2013-06-26 20:29:00,
2013-06-26 16:34:00,84.4,74.4,29.97,South,181,7.6,12.7,72,0.00,OVC,,0.00,0.0,WeatherDisplay:10.37,2013-06-26 20:34:00,
2013-06-26 16:39:00,84.1,74.5,29.97,SW,214,9.7,13.8,73,0.00,OVC,,0.00,0.0,WeatherDisplay:10.37,2013-06-26 20:39:00,
2013-06-26 16:44:00,83.7,74.1,29.97,SSW,209,7.7,12.7,73,0.00,OVC,,0.00,0.0,WeatherDisplay:10.37,2013-06-26 20:44:00,
2013-06-26 16:49:00,83.5,74.3,29.97,SW,215,6.6,11.5,74,0.00,OVC,,0.00,0.0,WeatherDisplay:10.37,2013-06-26 20:49:00,
2013-06-26 16:54:00,83.3,74.5,29.97,South,181,5.4,11.5,75,0.00,OVC,,0.00,0.0,WeatherDisplay:10.37,2013-06-26 20:54:00,
2013-06-26 16:59:00,83.1,74.7,29.97,SW,223,5.2,10.4,76,0.00,OVC,,0.00,0.0,WeatherDisplay:10.37,2013-06-26 20:59:00,
2013-06-26 17:04:00,82.9,73.8,29.97,South,181,7.3,11.5,74,0.00,OVC,,0.00,0.0,WeatherDisplay:10.37,2013-06-26 21:04:00,
2013-06-26 17:09:00,82.9,72.9,29.97,WSW,244,3.3,7.0,72,0.00,OVC,,0.00,0.0,WeatherDisplay:10.37,2013-06-26 21:09:00,
2013-06-26 17:14:00,82.8,71.6,29.97,SSW,203,5.1,6.9,69,0.00,OVC,,0.00,0.0,WeatherDisplay:10.37,2013-06-26 21:14:00,
2013-06-26 17:19:00,82.5,70.4,29.97,SSW,213,5.2,9.2,67,0.00,OVC,,0.00,0.0,WeatherDisplay:10.37,2013-06-26 21:19:00,
2013-06-26 17:24:00,82.3,69.8,29.97,SSW,211,4.2,5.8,66,0.00,OVC,,0.00,0.0,WeatherDisplay:10.37,2013-06-26 21:24:00,
2013-06-26 17:29:00,81.9,69.4,29.97,SW,226,3.2,5.8,66,0.00,OVC,,0.00,0.0,WeatherDisplay:10.37,2013-06-26 21:29:00,
2013-06-26 17:34:00,81.8,69.8,29.96,South,180,2.3,3.5,67,0.00,OVC,,0.00,0.0,WeatherDisplay:10.37,2013-06-26 21:34:00,
2013-06-26 17:39:00,81.7,69.2,29.97,SW,223,3.4,6.0,66,0.00,OVC,,0.00,0.0,WeatherDisplay:10.37,2013-06-26 21:39:00,
2013-06-26 17:44:00,81.4,68.5,29.96,SSW,211,4.6,10.4,65,0.00,OVC,,0.00,0.0,WeatherDisplay:10.37,2013-06-26 21:44:00,
2013-06-26 17:49:00,80.9,68.9,29.96,WSW,242,2.3,8.1,67,0.00,OVC,,0.00,0.0,WeatherDisplay:10.37,2013-06-26 21:49:00,
2013-06-26 17:54:00,80.6,69.1,29.96,WSW,238,2.7,6.0,68,0.00,OVC,,0.00,0.0,WeatherDisplay:10.37,2013-06-26 21:54:00,
2013-06-26 17:59:00,80.4,69.3,29.96,South,180,3.4,5.0,69,0.00,OVC,,0.00,0.0,WeatherDisplay:10.37,2013-06-26 21:59:00,
2013-06-26 18:04:00,80.3,69.6,29.96,SW,229,4.5,6.0,70,0.00,OVC,,0.00,0.0,WeatherDisplay:10.37,2013-06-26 22:04:00,
2013-06-26 18:09:00,80.2,69.9,29.96,SSW,204,3.8,6.0,71,0.00,OVC,,0.00,0.0,WeatherDisplay:10.37,2013-06-26 22:09:00,
2013-06-26 18:14:00,80.1,70.3,29.96,SW,232,2.5,4.0,72,0.00,OVC,,0.00,0.0,WeatherDisplay:10.37,2013-06-26 22:14:00,
2013-06-26 18:19:00,80.2,70.4,29.95,South,178,0.7,3.5,72,0.00,OVC,,0.00,0.0,WeatherDisplay:10.37,2013-06-26 22:19:00,
2013-06-26 18:24:00,80.2,70.8,29.96,South,180,4.2,6.9,73,0.00,OVC,,0.00,0.0,WeatherDisplay:10.37,2013-06-26 22:24:00,
2013-06-26 18:29:00,80.1,71.1,29.96,South,174,4.5,5.8,74,0.00,OVC,,0.00,0.0,WeatherDisplay:10.37,2013-06-26 22:29:00,
2013-06-26 18:34:00,80.0,71.8,29.96,South,190,5.6,11.5,76,0.00,OVC,,0.00,0.0,WeatherDisplay:10.37,2013-06-26 22:34:00,
2013-06-26 18:39:00,79.9,72.0,29.96,SE,144,4.7,6.9,77,0.00,OVC,,0.00,0.0,WeatherDisplay:10.37,2013-06-26 22:39:00,
2013-06-26 18:44:00,79.9,72.4,29.96,SSW,212,3.5,9.2,78,0.00,OVC,,0.00,0.0,WeatherDisplay:10.37,2013-06-26 22:44:00,
2013-06-26 18:49:00,79.7,72.6,29.97,SSW,192,2.8,3.5,79,0.00,OVC,,0.00,0.0,WeatherDisplay:10.37,2013-06-26 22:49:00,
2013-06-26 18:54:00,79.7,72.6,29.97,SW,215,4.6,6.9,79,0.00,OVC,,0.00,0.0,WeatherDisplay:10.37,2013-06-26 22:54:00,
2013-06-26 18:59:00,79.6,72.5,29.97,SW,214,5.5,9.0,79,0.00,OVC,,0.00,0.0,WeatherDisplay:10.37,2013-06-26 22:59:00,
2013-06-26 19:04:00,79.4,72.3,29.97,South,178,3.8,10.4,79,0.00,OVC,,0.00,0.0,WeatherDisplay:10.37,2013-06-26 23:04:00,
2013-06-26 19:09:00,79.4,72.7,29.97,SSE,165,2.1,3.5,80,0.00,OVC,,0.00,0.0,WeatherDisplay:10.37,2013-06-26 23:09:00,
2013-06-26 19:14:00,79.5,73.2,29.97,SW,229,3.3,7.0,81,0.00,OVC,,0.00,0.0,WeatherDisplay:10.37,2013-06-26 23:14:00,
2013-06-26 19:19:00,79.5,73.2,29.97,SW,227,0.5,2.3,81,0.00,OVC,,0.00,0.0,WeatherDisplay:10.37,2013-06-26 23:19:00,
2013-06-26 19:24:00,79.6,73.6,29.97,South,179,1.5,6.9,82,0.00,OVC,,0.00,0.0,WeatherDisplay:10.37,2013-06-26 23:24:00,
2013-06-26 19:29:00,79.6,73.6,29.97,SSW,198,0.6,6.9,82,0.00,OVC,,0.00,0.0,WeatherDisplay:10.37,2013-06-26 23:29:00,
2013-06-26 19:34:00,79.7,74.1,29.97,South,187,4.3,9.2,83,0.00,OVC,,0.00,0.0,WeatherDisplay:10.37,2013-06-26 23:34:00,
2013-06-26 19:39:00,79.7,74.1,29.97,SSW,196,5.0,6.9,83,0.00,OVC,,0.00,0.0,WeatherDisplay:10.37,2013-06-26 23:39:00,
2013-06-26 19:44:00,79.6,74.3,29.97,South,179,3.0,6.9,84,0.00,OVC,,0.00,0.0,WeatherDisplay:10.37,2013-06-26 23:44:00,
2013-06-26 19:49:00,79.6,74.3,29.97,WSW,239,3.9,8.0,84,0.00,OVC,,0.00,0.0,WeatherDisplay:10.37,2013-06-26 23:49:00,
2013-06-26 19:54:00,79.7,74.4,29.96,SSW,212,1.8,1.8,84,0.00,OVC,,0.00,0.0,WeatherDisplay:10.37,2013-06-26 23:54:00,
2013-06-26 19:59:00,79.7,74.4,29.96,SSW,202,4.2,8.1,84,0.00,OVC,,0.00,0.0,WeatherDisplay:10.37,2013-06-26 23:59:00,
2013-06-26 20:04:00,79.6,74.7,29.96,South,180,2.4,5.8,85,0.00,OVC,,0.00,0.0,WeatherDisplay:10.37,2013-06-27 00:04:00,
2013-06-26 20:09:00,79.6,74.7,29.96,WSW,239,3.5,8.1,85,0.00,OVC,,0.00,0.0,WeatherDisplay:10.37,2013-06-27 00:09:00,
2013-06-26 20:14:00,79.5,74.9,29.96,SW,232,2.9,6.9,86,0.00,OVC,,0.00,0.0,WeatherDisplay:10.37,2013-06-27 00:14:00,
2013-06-26 20:19:00,79.5,74.9,29.96,SSW,194,1.8,4.0,86,0.00,OVC,,0.00,0.0,WeatherDisplay:10.37,2013-06-27 00:19:00,
2013-06-26 20:25:00,79.5,74.9,29.96,SSW,211,2.3,8.1,86,0.00,OVC,,0.00,0.0,WeatherDisplay:10.37,2013-06-27 00:25:00,
2013-06-26 20:30:00,79.5,74.9,29.96,SW,235,4.6,10.4,86,0.00,OVC,,0.00,0.0,WeatherDisplay:10.37,2013-06-27 00:30:00,
2013-06-26 20:35:00,79.5,74.9,29.96,SSE,159,1.6,5.8,86,0.00,OVC,,0.00,0.0,WeatherDisplay:10.37,2013-06-27 00:35:00,
2013-06-26 20:40:00,79.5,74.9,29.96,SW,219,4.4,4.6,86,0.00,OVC,,0.00,0.0,WeatherDisplay:10.37,2013-06-27 00:40:00,
2013-06-26 20:45:00,79.5,74.9,29.96,SW,228,6.2,11.5,86,0.00,OVC,,0.00,0.0,WeatherDisplay:10.37,2013-06-27 00:45:00,
2013-06-26 20:50:00,79.4,74.8,29.96,WSW,241,1.9,5.8,86,0.00,OVC,,0.00,0.0,WeatherDisplay:10.37,2013-06-27 00:50:00,
2013-06-26 20:55:00,79.4,74.8,29.96,SW,231,2.9,5.0,86,0.00,OVC,,0.00,0.0,WeatherDisplay:10.37,2013-06-27 00:55:00,
2013-06-26 21:00:00,79.3,74.7,29.96,SW,223,1.3,3.5,86,0.00,CLR,OVC,0.00,0.0,WeatherDisplay:10.37,2013-06-27 01:00:00,
2013-06-26 21:05:00,79.3,74.7,29.96,SW,227,6.8,9.2,86,0.00,CLR,OVC,0.00,0.0,WeatherDisplay:10.37,2013-06-27 01:05:00,
2013-06-26 21:10:00,79.3,74.7,29.96,SW,225,5.6,6.9,86,0.00,CLR,OVC,0.00,0.0,WeatherDisplay:10.37,2013-06-27 01:10:00,
2013-06-26 21:15:00,79.2,75.0,29.96,South,180,4.4,9.2,87,0.00,CLR,OVC,0.00,0.0,WeatherDisplay:10.37,2013-06-27 01:15:00,
2013-06-26 21:20:00,79.1,74.9,29.97,South,189,5.5,11.5,87,0.00,CLR,OVC,0.00,0.0,WeatherDisplay:10.37,2013-06-27 01:20:00,
2013-06-26 21:25:00,79.0,74.8,29.97,SSW,211,5.1,9.2,87,0.00,CLR,OVC,0.00,0.0,WeatherDisplay:10.37,2013-06-27 01:25:00,
2013-06-26 21:30:00,78.9,75.0,29.98,West,267,3.0,6.9,88,0.00,CLR,OVC,0.00,0.0,WeatherDisplay:10.37,2013-06-27 01:30:00,
2013-06-26 21:35:00,78.9,75.0,29.99,SW,227,3.8,6.9,88,0.00,CLR,OVC,0.00,0.0,WeatherDisplay:10.37,2013-06-27 01:35:00,
2013-06-26 21:40:00,78.8,74.9,29.99,SSW,193,4.3,8.1,88,0.00,CLR,OVC,0.00,0.0,WeatherDisplay:10.37,2013-06-27 01:40:00,
2013-06-26 21:45:00,78.8,74.9,29.99,SW,215,2.7,4.6,88,0.00,CLR,OVC,0.00,0.0,WeatherDisplay:10.37,2013-06-27 01:45:00,
2013-06-26 21:50:00,78.9,75.0,29.99,SSW,205,2.5,7.0,88,0.00,CLR,OVC,0.00,0.0,WeatherDisplay:10.37,2013-06-27 01:50:00,
2013-06-26 21:55:00,78.9,75.0,29.99,South,179,5.0,11.5,88,0.00,CLR,OVC,0.00,0.0,WeatherDisplay:10.37,2013-06-27 01:55:00,
2013-06-26 22:00:00,78.8,74.9,29.99,SW,224,4.6,9.2,88,0.00,CLR,OVC,0.00,0.0,WeatherDisplay:10.37,2013-06-27 02:00:00,
2013-06-26 22:05:00,78.9,75.0,29.99,SW,217,2.8,5.8,88,0.00,CLR,OVC,0.00,0.0,WeatherDisplay:10.37,2013-06-27 02:05:00,
2013-06-26 22:10:00,78.9,75.0,29.99,WNW,286,3.5,5.8,88,0.00,CLR,OVC,0.00,0.0,WeatherDisplay:10.37,2013-06-27 02:10:00,
2013-06-26 22:15:00,78.9,75.0,29.99,WSW,247,4.2,9.2,88,0.00,CLR,OVC,0.00,0.0,WeatherDisplay:10.37,2013-06-27 02:15:00,
2013-06-26 22:20:00,78.9,75.0,29.99,SSW,192,1.7,3.5,88,0.00,CLR,OVC,0.00,0.0,WeatherDisplay:10.37,2013-06-27 02:20:00,
2013-06-26 22:25:00,78.9,75.0,29.99,SSW,206,1.9,4.6,88,0.00,CLR,OVC,0.00,0.0,WeatherDisplay:10.37,2013-06-27 02:25:00,
2013-06-26 22:30:00,78.9,75.0,29.99,South,177,4.9,8.1,88,0.00,CLR,OVC,0.00,0.0,WeatherDisplay:10.37,2013-06-27 02:30:00,
2013-06-26 22:35:00,78.7,75.2,29.99,SW,221,4.1,9.2,89,0.01,RA,OVC,0.01,0.0,WeatherDisplay:10.37,2013-06-27 02:35:00,
2013-06-26 22:40:00,78.3,75.1,29.99,SW,229,4.8,9.2,90,0.01,RA,OVC,0.01,0.0,WeatherDisplay:10.37,2013-06-27 02:40:00,
2013-06-26 22:45:00,78.0,75.2,29.98,SW,225,6.6,11.5,91,0.01,CLR,OVC,0.01,0.0,WeatherDisplay:10.37,2013-06-27 02:45:00,
2013-06-26 22:50:00,77.8,75.3,29.98,SW,219,5.6,10.4,92,0.01,CLR,OVC,0.01,0.0,WeatherDisplay:10.37,2013-06-27 02:50:00,
2013-06-26 22:55:00,77.7,75.2,29.98,SSW,198,1.8,4.6,92,0.01,CLR,OVC,0.01,0.0,WeatherDisplay:10.37,2013-06-27 02:55:00,
2013-06-26 23:00:00,77.6,75.1,29.98,South,180,2.8,5.8,92,0.01,CLR,OVC,0.01,0.0,WeatherDisplay:10.37,2013-06-27 03:00:00,
2013-06-26 23:05:00,77.6,75.1,29.98,SW,229,1.8,3.5,92,0.01,CLR,OVC,0.01,0.0,WeatherDisplay:10.37,2013-06-27 03:05:00,
2013-06-26 23:10:00,77.6,75.4,29.99,West,269,6.2,10.4,93,0.01,CLR,OVC,0.01,0.0,WeatherDisplay:10.37,2013-06-27 03:10:00,
2013-06-26 23:15:00,77.2,73.7,30.01,WSW,241,10.7,19.6,89,0.02,RA,OVC,0.02,0.0,WeatherDisplay:10.37,2013-06-27 03:15:00,
2013-06-26 23:20:00,75.5,70.3,30.02,WSW,250,5.1,9.2,84,0.04,RA,OVC,0.04,0.0,WeatherDisplay:10.37,2013-06-27 03:20:00,
2013-06-26 23:25:00,73.2,69.1,30.01,WNW,284,4.4,9.2,87,0.19,RA,OVC,0.21,0.0,WeatherDisplay:10.37,2013-06-27 03:25:00,
2013-06-26 23:30:00,71.5,68.1,29.99,WNW,302,1.8,5.8,89,0.29,RA,OVC,0.30,0.0,WeatherDisplay:10.37,2013-06-27 03:30:00,
2013-06-26 23:35:00,70.6,67.8,29.99,WNW,302,0.3,1.1,91,0.30,RA,OVC,0.31,0.0,WeatherDisplay:10.37,2013-06-27 03:35:00,
2013-06-26 23:40:00,70.1,68.0,29.99,SW,224,1.3,3.5,93,0.30,RA,OVC,0.31,0.0,WeatherDisplay:10.37,2013-06-27 03:40:00,
2013-06-26 23:45:00,69.7,67.6,29.99,SW,224,1.3,2.3,93,0.31,RA,OVC,0.32,0.0,WeatherDisplay:10.37,2013-06-27 03:45:00,
2013-06-26 23:50:00,69.6,67.8,30.00,SW,223,0.2,2.3,94,0.31,RA,OVC,0.32,0.0,WeatherDisplay:10.37,2013-06-27 03:50:00,
2013-06-26 23:55:00,69.5,68.0,29.99,South,184,4.4,8.1,95,0.31,CLR,OVC,0.32,0.0,WeatherDisplay:10.37,2013-06-27 03:55:00,